Time;durP1;ratioP1;P1;durP2;ratioP2;P2;SDS_P1;SDS_P2;PMS_P1;PMS_P2;Temp;Humidity;BMP_temperature;BMP_pressure;BME280_temperature;BME280_humidity;BME280_pressure;Samples;Min_cycle;Max_cycle;Signal;HPM_P1;HPM_P2
2023/04/25 00:00:28;;;;;;;;;;;9.00;99.90;;;;;;5014821;28;19960;-71
2023/04/25 00:02:56;;;;;;;;;;;8.90;99.90;;;;;;5028782;28;19920;-70
2023/04/25 00:05:22;;;;;;;;;;;8.90;99.90;;;;;;5015246;28;19953;-69
2023/04/25 00:07:49;;;;;;;;;;;8.90;99.90;;;;;;5015873;28;19917;-69
2023/04/25 00:10:15;;;;;;;;;;;8.90;99.90;;;;;;5015993;28;19944;-69
2023/04/25 00:12:41;;;;;;;;;;;8.90;99.90;;;;;;5017378;28;19913;-69
2023/04/25 00:15:07;;;;;;;;;;;8.80;99.90;;;;;;5015608;28;20353;-69
2023/04/25 00:17:32;;;;;;;;;;;8.80;99.90;;;;;;5019109;28;19940;-70
2023/04/25 00:19:58;;;;;;;;;;;8.80;99.90;;;;;;5011943;28;20297;-70
2023/04/25 00:22:24;;;;;;;;;;;8.80;99.90;;;;;;5015065;28;19971;-69
2023/04/25 00:24:50;;;;;;;;;;;8.80;99.90;;;;;;5016749;28;20409;-69
2023/04/25 00:27:15;;;;;;;;;;;8.80;99.90;;;;;;5016411;28;19913;-69
2023/04/25 00:29:41;;;;;;;;;;;8.80;99.90;;;;;;5014848;28;19936;-69
2023/04/25 00:32:06;;;;;;;;;;;8.70;99.90;;;;;;5016548;28;20015;-69
2023/04/25 00:34:32;;;;;;;;;;;8.70;99.90;;;;;;5010172;28;20489;-69
2023/04/25 00:36:58;;;;;;;;;;;8.70;99.90;;;;;;5012780;28;19986;-69
2023/04/25 00:39:24;;;;;;;;;;;8.60;99.90;;;;;;5014192;28;19920;-69
2023/04/25 00:41:52;;;;;;;;;;;8.60;99.90;;;;;;5016352;28;19932;-69
2023/04/25 00:44:18;;;;;;;;;;;8.60;99.90;;;;;;5019369;28;20057;-69
2023/04/25 00:46:44;;;;;;;;;;;8.50;99.90;;;;;;5015692;28;19940;-69
2023/04/25 00:49:15;;;;;;;;;;;8.50;99.90;;;;;;5014164;28;20277;-70
2023/04/25 00:51:41;;;;;;;;;;;8.50;99.90;;;;;;5011611;28;19909;-69
2023/04/25 00:54:06;;;;;;;;;;;8.50;99.90;;;;;;5014358;28;19915;-69
2023/04/25 00:56:32;;;;;;;;;;;8.50;99.90;;;;;;5011818;28;19913;-71
2023/04/25 00:58:58;;;;;;;;;;;8.50;99.90;;;;;;5014947;28;19956;-69
2023/04/25 01:01:23;;;;;;;;;;;8.50;99.90;;;;;;5016227;28;19920;-69
2023/04/25 01:03:49;;;;;;;;;;;8.50;99.90;;;;;;5011166;28;19913;-72
2023/04/25 01:06:16;;;;;;;;;;;8.50;99.90;;;;;;5013032;28;19970;-70
2023/04/25 01:08:41;;;;;;;;;;;8.50;99.90;;;;;;5011173;28;19924;-69
2023/04/25 01:11:07;;;;;;;;;;;8.50;99.90;;;;;;5030314;28;20458;-70
2023/04/25 01:13:33;;;;;;;;;;;8.50;99.90;;;;;;5015107;28;19921;-71
2023/04/25 01:15:59;;;;;;;;;;;8.50;99.90;;;;;;5012195;28;19932;-71
2023/04/25 01:18:24;;;;;;;;;;;8.50;99.90;;;;;;5014451;28;20503;-70
2023/04/25 01:20:51;;;;;;;;;;;8.50;99.90;;;;;;5011895;28;19913;-70
2023/04/25 01:23:17;;;;;;;;;;;8.40;99.90;;;;;;5016429;28;20372;-70
2023/04/25 01:25:43;;;;;;;;;;;8.40;99.90;;;;;;5010410;28;20024;-70
2023/04/25 01:28:08;;;;;;;;;;;8.40;99.90;;;;;;5011308;28;20417;-71
2023/04/25 01:30:52;;;;;;;;;;;8.40;99.90;;;;;;5011367;28;19949;-70
2023/04/25 01:33:19;;;;;;;;;;;8.40;99.90;;;;;;5012406;28;19917;-70
2023/04/25 01:35:44;;;;;;;;;;;8.30;99.90;;;;;;5011819;28;19913;-71
2023/04/25 01:38:11;;;;;;;;;;;8.30;99.90;;;;;;5010042;28;19916;-69
2023/04/25 01:40:38;;;;;;;;;;;8.20;99.90;;;;;;5008031;28;19999;-69
2023/04/25 01:43:04;;;;;;;;;;;8.20;99.90;;;;;;5009255;28;19913;-70
2023/04/25 01:45:30;;;;;;;;;;;8.20;99.90;;;;;;5013156;28;20591;-76
2023/04/25 01:47:59;;;;;;;;;;;8.20;99.90;;;;;;5015180;28;20018;-72
2023/04/25 01:50:24;;;;;;;;;;;8.30;99.90;;;;;;4993310;28;20025;-70
2023/04/25 01:52:50;;;;;;;;;;;8.20;99.90;;;;;;5008633;28;20004;-70
2023/04/25 01:55:16;;;;;;;;;;;8.10;99.90;;;;;;5014643;28;19913;-70
2023/04/25 01:57:41;;;;;;;;;;;8.20;99.90;;;;;;5013774;28;20378;-70
2023/04/25 02:00:08;;;;;;;;;;;8.20;99.90;;;;;;5012158;28;20489;-71
2023/04/25 02:02:34;;;;;;;;;;;8.10;99.90;;;;;;5012098;28;19917;-70
2023/04/25 02:05:00;;;;;;;;;;;8.00;99.90;;;;;;5010270;28;20376;-69
2023/04/25 02:07:26;;;;;;;;;;;8.10;99.90;;;;;;5013832;28;19923;-70
2023/04/25 02:13:19;;;;;;;;;;;8.10;99.90;;;;;;5010180;28;20373;-70
2023/04/25 02:15:45;;;;;;;;;;;8.00;99.90;;;;;;5011484;28;19917;-69
2023/04/25 02:18:11;;;;;;;;;;;8.00;99.90;;;;;;5008957;28;20526;-69
2023/04/25 02:20:36;;;;;;;;;;;7.90;99.90;;;;;;5008503;28;19923;-69
2023/04/25 02:23:02;;;;;;;;;;;7.90;99.90;;;;;;5010928;28;19936;-70
2023/04/25 02:25:28;;;;;;;;;;;7.90;99.90;;;;;;5009479;28;20372;-70
2023/04/25 02:27:54;;;;;;;;;;;7.90;99.90;;;;;;5013066;28;20421;-71
2023/04/25 02:30:20;;;;;;;;;;;7.90;99.90;;;;;;5010191;28;20003;-70
2023/04/25 02:32:45;;;;;;;;;;;7.90;99.90;;;;;;5012091;28;20397;-70
2023/04/25 02:35:11;;;;;;;;;;;7.90;99.90;;;;;;5010817;28;19909;-69
2023/04/25 02:37:37;;;;;;;;;;;7.90;99.90;;;;;;5012051;28;20463;-71
2023/04/25 02:40:04;;;;;;;;;;;7.90;99.90;;;;;;5011012;28;20301;-70
2023/04/25 02:42:30;;;;;;;;;;;7.90;99.90;;;;;;5011199;28;20211;-70
2023/04/25 02:44:55;;;;;;;;;;;7.90;99.90;;;;;;5010348;28;19909;-69
2023/04/25 02:47:21;;;;;;;;;;;7.90;99.90;;;;;;5011900;28;19914;-70
2023/04/25 02:49:46;;;;;;;;;;;7.80;99.90;;;;;;5010230;28;19951;-69
2023/04/25 02:52:12;;;;;;;;;;;7.80;99.90;;;;;;5008284;28;20079;-71
2023/04/25 02:54:38;;;;;;;;;;;7.80;99.90;;;;;;5012567;28;19916;-70
2023/04/25 02:57:04;;;;;;;;;;;7.70;99.90;;;;;;5005464;28;19943;-70
2023/04/25 02:59:29;;;;;;;;;;;7.70;99.90;;;;;;5009860;28;21561;-69
2023/04/25 03:01:55;;;;;;;;;;;7.70;99.90;;;;;;5008298;28;20223;-70
2023/04/25 03:04:23;;;;;;;;;;;7.70;99.90;;;;;;5009180;28;19952;-70
2023/04/25 03:06:49;;;;;;;;;;;7.70;99.90;;;;;;5013650;28;19940;-70
2023/04/25 03:09:15;;;;;;;;;;;7.60;99.90;;;;;;4992901;28;19964;-72
2023/04/25 03:11:40;;;;;;;;;;;7.60;99.90;;;;;;5012615;28;19952;-70
2023/04/25 03:14:06;;;;;;;;;;;7.50;99.90;;;;;;5016753;28;19963;-71
2023/04/25 03:16:32;;;;;;;;;;;7.50;99.90;;;;;;5010381;28;19921;-70
2023/04/25 03:18:57;;;;;;;;;;;7.50;99.90;;;;;;5014848;28;19913;-70
2023/04/25 03:21:23;;;;;;;;;;;7.40;99.90;;;;;;5011869;28;19971;-71
2023/04/25 03:23:49;;;;;;;;;;;7.40;99.90;;;;;;5013862;28;20362;-72
2023/04/25 03:26:14;;;;;;;;;;;7.40;99.90;;;;;;5012264;28;20000;-70
2023/04/25 03:28:42;;;;;;;;;;;7.40;99.90;;;;;;5015547;28;20305;-70
2023/04/25 03:31:08;;;;;;;;;;;7.30;99.90;;;;;;5011315;28;19913;-72
2023/04/25 03:33:34;;;;;;;;;;;7.30;99.90;;;;;;5014893;28;20301;-71
2023/04/25 03:35:59;;;;;;;;;;;7.30;99.90;;;;;;5013177;28;19916;-70
2023/04/25 03:38:25;;;;;;;;;;;7.30;99.90;;;;;;5011082;28;19909;-71
2023/04/25 03:40:51;;;;;;;;;;;7.20;99.90;;;;;;5016009;28;20736;-70
2023/04/25 03:43:16;;;;;;;;;;;7.10;99.90;;;;;;5012764;28;20348;-70
2023/04/25 03:45:42;;;;;;;;;;;7.10;99.90;;;;;;5015478;28;19913;-72
2023/04/25 03:48:08;;;;;;;;;;;7.10;99.90;;;;;;5014383;28;19924;-70
2023/04/25 03:50:33;;;;;;;;;;;7.10;99.90;;;;;;5016356;28;20028;-72
2023/04/25 03:52:59;;;;;;;;;;;7.10;99.90;;;;;;5013168;28;19940;-70
2023/04/25 03:55:24;;;;;;;;;;;7.20;99.90;;;;;;5013062;28;19968;-71
2023/04/25 03:57:50;;;;;;;;;;;7.20;99.90;;;;;;5010122;28;20004;-69
2023/04/25 04:00:16;;;;;;;;;;;7.20;99.90;;;;;;5012694;28;19909;-69
2023/04/25 04:02:42;;;;;;;;;;;7.20;99.90;;;;;;5017966;28;20003;-69
2023/04/25 04:05:07;;;;;;;;;;;7.20;99.90;;;;;;5018544;28;19924;-69
2023/04/25 04:07:33;;;;;;;;;;;7.20;99.90;;;;;;5016896;28;20357;-69
2023/04/25 04:09:59;;;;;;;;;;;7.20;99.90;;;;;;5016039;28;19910;-69
2023/04/25 04:12:24;;;;;;;;;;;7.10;99.90;;;;;;5014672;28;20401;-68
2023/04/25 04:14:50;;;;;;;;;;;7.10;99.90;;;;;;5013518;28;19956;-69
2023/04/25 04:17:16;;;;;;;;;;;7.10;99.90;;;;;;5013642;28;19966;-69
2023/04/25 04:19:41;;;;;;;;;;;7.00;99.90;;;;;;5014066;28;20042;-69
2023/04/25 04:22:07;;;;;;;;;;;7.00;99.90;;;;;;5010153;28;19928;-70
2023/04/25 04:24:32;;;;;;;;;;;7.00;99.90;;;;;;5013545;28;20513;-68
2023/04/25 04:26:58;;;;;;;;;;;7.00;99.90;;;;;;5013330;28;19979;-71
2023/04/25 04:29:25;;;;;;;;;;;7.00;99.90;;;;;;5013224;28;20332;-72
2023/04/25 04:31:52;;;;;;;;;;;7.00;99.90;;;;;;5011727;28;19913;-69
2023/04/25 04:34:18;;;;;;;;;;;7.00;99.90;;;;;;5013555;28;19921;-70
2023/04/25 04:36:45;;;;;;;;;;;6.90;99.90;;;;;;5015007;28;19913;-70
2023/04/25 04:39:11;;;;;;;;;;;6.90;99.90;;;;;;5011117;28;19909;-70
2023/04/25 04:41:37;;;;;;;;;;;6.90;99.90;;;;;;5008622;28;19917;-69
2023/04/25 04:44:03;;;;;;;;;;;7.00;99.90;;;;;;5011176;28;19913;-70
2023/04/25 04:46:30;;;;;;;;;;;7.00;99.90;;;;;;5009946;28;19922;-69
2023/04/25 04:48:56;;;;;;;;;;;7.10;99.90;;;;;;5013241;28;19917;-71
2023/04/25 04:51:23;;;;;;;;;;;7.10;99.90;;;;;;4992340;28;20886;-70
2023/04/25 04:53:48;;;;;;;;;;;7.20;99.90;;;;;;5009905;28;19914;-70
2023/04/25 04:56:15;;;;;;;;;;;7.20;99.90;;;;;;5012849;28;19925;-69
2023/04/25 04:58:41;;;;;;;;;;;7.20;99.90;;;;;;5009892;28;20731;-69
2023/04/25 05:01:07;;;;;;;;;;;7.20;99.90;;;;;;5012553;28;19916;-70
2023/04/25 05:03:32;;;;;;;;;;;7.20;99.90;;;;;;5005924;28;20063;-71
2023/04/25 05:05:58;;;;;;;;;;;7.30;99.90;;;;;;5014007;28;20004;-70
2023/04/25 05:08:23;;;;;;;;;;;7.30;99.90;;;;;;5023480;28;20360;-69
2023/04/25 05:10:49;;;;;;;;;;;7.30;99.90;;;;;;5007385;28;19917;-70
2023/04/25 05:13:15;;;;;;;;;;;7.30;99.90;;;;;;5008808;28;19917;-70
2023/04/25 05:15:41;;;;;;;;;;;7.20;99.90;;;;;;5011426;28;19988;-70
2023/04/25 05:18:06;;;;;;;;;;;7.10;99.90;;;;;;5007275;28;20021;-70
2023/04/25 05:20:32;;;;;;;;;;;7.10;99.90;;;;;;5008720;28;19920;-71
2023/04/25 05:22:58;;;;;;;;;;;7.00;99.90;;;;;;5007002;28;20533;-70
2023/04/25 05:25:24;;;;;;;;;;;7.10;99.90;;;;;;5010503;28;20007;-71
2023/04/25 05:27:50;;;;;;;;;;;7.00;99.90;;;;;;5013762;28;19996;-71
2023/04/25 05:30:16;;;;;;;;;;;7.10;99.90;;;;;;5010290;28;20011;-70
2023/04/25 05:32:42;;;;;;;;;;;7.00;99.90;;;;;;5007962;28;19988;-70
2023/04/25 05:35:08;;;;;;;;;;;7.10;99.90;;;;;;5008430;28;19921;-74
2023/04/25 05:37:34;;;;;;;;;;;7.20;99.90;;;;;;5009543;28;19913;-72
2023/04/25 05:39:59;;;;;;;;;;;7.10;99.90;;;;;;5008978;28;20289;-72
2023/04/25 05:42:25;;;;;;;;;;;7.20;99.90;;;;;;5012129;28;20144;-70
2023/04/25 05:44:51;;;;;;;;;;;7.20;99.90;;;;;;5009181;28;19987;-72
2023/04/25 05:47:17;;;;;;;;;;;7.20;99.90;;;;;;5008330;28;19917;-72
2023/04/25 05:49:42;;;;;;;;;;;7.20;99.90;;;;;;5005641;28;19945;-71
2023/04/25 05:52:08;;;;;;;;;;;7.20;99.90;;;;;;5014082;28;19915;-74
2023/04/25 05:54:33;;;;;;;;;;;7.20;99.90;;;;;;5008540;28;19917;-71
2023/04/25 05:56:59;;;;;;;;;;;7.20;99.90;;;;;;5008680;28;19909;-70
2023/04/25 05:59:25;;;;;;;;;;;7.30;99.90;;;;;;5007075;28;19912;-71
2023/04/25 06:01:51;;;;;;;;;;;7.30;99.90;;;;;;5003532;28;20012;-69
2023/04/25 06:04:17;;;;;;;;;;;7.30;99.90;;;;;;5008216;28;19913;-70
2023/04/25 06:06:42;;;;;;;;;;;7.40;99.90;;;;;;5011383;28;19919;-69
2023/04/25 06:09:08;;;;;;;;;;;7.30;99.90;;;;;;5008432;28;20308;-71
2023/04/25 06:11:34;;;;;;;;;;;7.40;99.90;;;;;;5011993;28;19913;-69
2023/04/25 06:14:00;;;;;;;;;;;7.40;99.90;;;;;;5011067;28;19916;-70
2023/04/25 06:16:25;;;;;;;;;;;7.50;99.90;;;;;;5007126;28;19941;-69
2023/04/25 06:18:51;;;;;;;;;;;7.50;99.90;;;;;;5009535;28;19976;-70
2023/04/25 06:21:17;;;;;;;;;;;7.50;99.90;;;;;;5011545;28;19932;-70
2023/04/25 06:23:42;;;;;;;;;;;7.50;99.90;;;;;;5007343;28;20376;-69
2023/04/25 06:26:08;;;;;;;;;;;7.50;99.90;;;;;;5013085;28;19958;-68
2023/04/25 06:28:33;;;;;;;;;;;7.60;99.90;;;;;;5006033;28;19939;-71
2023/04/25 06:30:59;;;;;;;;;;;7.60;99.90;;;;;;5011105;28;19913;-70
2023/04/25 06:33:25;;;;;;;;;;;7.60;99.90;;;;;;5010807;28;19909;-72
2023/04/25 06:35:50;;;;;;;;;;;7.60;99.90;;;;;;5005969;28;19956;-70
2023/04/25 06:38:16;;;;;;;;;;;7.60;99.90;;;;;;5010561;28;20352;-71
2023/04/25 06:40:41;;;;;;;;;;;7.60;99.90;;;;;;5004490;28;19913;-76
2023/04/25 06:43:07;;;;;;;;;;;7.60;99.90;;;;;;5007637;28;19921;-71
2023/04/25 06:45:32;;;;;;;;;;;7.70;99.90;;;;;;5011976;28;20003;-70
2023/04/25 06:47:58;;;;;;;;;;;7.70;99.90;;;;;;5009772;28;20313;-70
2023/04/25 06:50:24;;;;;;;;;;;7.80;99.90;;;;;;5013398;28;19909;-69
2023/04/25 06:52:49;;;;;;;;;;;7.90;99.90;;;;;;5010783;28;20003;-70
2023/04/25 06:55:15;;;;;;;;;;;7.80;99.90;;;;;;5013625;28;19945;-69
2023/04/25 06:57:40;;;;;;;;;;;7.90;99.90;;;;;;5017145;28;19983;-70
2023/04/25 07:00:09;;;;;;;;;;;7.90;99.90;;;;;;5009001;28;19987;-70
2023/04/25 07:02:37;;;;;;;;;;;7.90;99.90;;;;;;5011961;28;20356;-70
2023/04/25 07:05:03;;;;;;;;;;;8.20;99.90;;;;;;5011445;28;19992;-70
2023/04/25 07:07:30;;;;;;;;;;;8.20;99.90;;;;;;5013486;28;19913;-70
2023/04/25 07:09:56;;;;;;;;;;;8.20;99.90;;;;;;5012843;28;20191;-70
2023/04/25 07:12:21;;;;;;;;;;;8.20;99.90;;;;;;5012007;28;19921;-70
2023/04/25 07:14:47;;;;;;;;;;;8.20;99.90;;;;;;5013009;28;19908;-70
2023/04/25 07:17:12;;;;;;;;;;;8.20;99.90;;;;;;5012692;28;20339;-72
2023/04/25 07:19:39;;;;;;;;;;;8.30;99.90;;;;;;5013111;28;19913;-71
2023/04/25 07:22:05;;;;;;;;;;;8.30;99.90;;;;;;4997497;28;20465;-73
2023/04/25 07:24:31;;;;;;;;;;;8.30;99.90;;;;;;5013879;28;20355;-71
2023/04/25 07:26:57;;;;;;;;;;;8.20;99.90;;;;;;5013865;28;19912;-70
2023/04/25 07:29:23;;;;;;;;;;;8.10;99.90;;;;;;5010620;28;19945;-69
2023/04/25 07:31:49;;;;;;;;;;;8.20;99.90;;;;;;5013848;28;20313;-70
2023/04/25 07:34:15;;;;;;;;;;;8.10;99.90;;;;;;5011740;28;19913;-73
2023/04/25 07:36:41;;;;;;;;;;;8.10;99.90;;;;;;5014984;28;19941;-70
2023/04/25 07:39:08;;;;;;;;;;;8.10;99.90;;;;;;5014131;28;19909;-73
2023/04/25 07:41:34;;;;;;;;;;;8.10;99.90;;;;;;5012772;28;20564;-69
2023/04/25 07:44:00;;;;;;;;;;;8.10;99.90;;;;;;5015527;28;20000;-70
2023/04/25 07:46:25;;;;;;;;;;;8.20;99.90;;;;;;5017222;28;21022;-70
2023/04/25 07:48:51;;;;;;;;;;;8.30;99.90;;;;;;5016953;28;19917;-70
2023/04/25 07:51:19;;;;;;;;;;;8.30;99.90;;;;;;5013632;28;20326;-70
2023/04/25 07:53:45;;;;;;;;;;;8.40;99.90;;;;;;5014833;28;19923;-70
2023/04/25 07:56:11;;;;;;;;;;;8.40;99.90;;;;;;5017312;28;19925;-71
2023/04/25 07:58:37;;;;;;;;;;;8.40;99.90;;;;;;5017135;28;20352;-72
2023/04/25 08:01:02;;;;;;;;;;;8.40;99.90;;;;;;5017436;28;19921;-71
2023/04/25 08:03:28;;;;;;;;;;;8.50;99.90;;;;;;5015824;28;19974;-71
2023/04/25 08:05:53;;;;;;;;;;;8.60;99.90;;;;;;5016417;28;19913;-71
2023/04/25 08:08:19;;;;;;;;;;;8.60;99.90;;;;;;5018340;28;19917;-74
2023/04/25 08:10:45;;;;;;;;;;;8.60;99.90;;;;;;5014824;28;20412;-71
2023/04/25 08:13:10;;;;;;;;;;;8.50;99.90;;;;;;5018389;28;19913;-69
2023/04/25 08:15:36;;;;;;;;;;;8.60;99.90;;;;;;5015709;28;20405;-69
2023/04/25 08:18:01;;;;;;;;;;;8.70;99.90;;;;;;5016895;28;19913;-69
2023/04/25 08:20:27;;;;;;;;;;;8.80;99.90;;;;;;5015674;28;20349;-69
2023/04/25 08:22:55;;;;;;;;;;;8.70;99.90;;;;;;5015097;28;19924;-69
2023/04/25 08:25:21;;;;;;;;;;;8.60;99.90;;;;;;5016595;28;19920;-69
2023/04/25 08:27:46;;;;;;;;;;;8.50;99.90;;;;;;5015241;28;20294;-69
2023/04/25 08:30:12;;;;;;;;;;;8.60;99.90;;;;;;5015829;28;19939;-69
2023/04/25 08:32:38;;;;;;;;;;;8.90;99.90;;;;;;5013935;28;19913;-75
2023/04/25 08:35:04;;;;;;;;;;;8.80;99.90;;;;;;5000527;28;19924;-71
2023/04/25 08:37:29;;;;;;;;;;;8.90;99.90;;;;;;5015844;28;19919;-70
2023/04/25 08:39:56;;;;;;;;;;;8.90;99.90;;;;;;5015049;28;19909;-72
2023/04/25 08:42:23;;;;;;;;;;;8.80;99.90;;;;;;5016756;28;20295;-68
2023/04/25 08:44:48;;;;;;;;;;;8.80;99.90;;;;;;5017830;28;20004;-69
2023/04/25 08:47:14;;;;;;;;;;;8.70;99.90;;;;;;5012593;28;20056;-69
2023/04/25 08:49:44;;;;;;;;;;;8.70;99.90;;;;;;5017120;28;19956;-69
2023/04/25 08:52:12;;;;;;;;;;;8.80;99.90;;;;;;4996002;28;20009;-69
2023/04/25 08:54:43;;;;;;;;;;;8.80;99.90;;;;;;5017815;28;20382;-69
2023/04/25 08:57:08;;;;;;;;;;;8.90;99.90;;;;;;5012611;28;19953;-73
2023/04/25 08:59:35;;;;;;;;;;;8.90;99.90;;;;;;5014026;28;19984;-72
2023/04/25 09:02:00;;;;;;;;;;;8.90;99.90;;;;;;4996352;28;19913;-69
2023/04/25 09:04:26;;;;;;;;;;;9.00;99.90;;;;;;5017007;28;19992;-70
2023/04/25 09:06:51;;;;;;;;;;;9.00;99.90;;;;;;5013662;28;19912;-69
2023/04/25 09:09:17;;;;;;;;;;;8.90;99.90;;;;;;5015719;28;19917;-71
2023/04/25 09:11:43;;;;;;;;;;;8.90;99.90;;;;;;5016832;28;19922;-70
2023/04/25 09:14:12;;;;;;;;;;;8.80;99.90;;;;;;5012977;28;20340;-69
2023/04/25 09:16:56;;;;;;;;;;;8.70;99.90;;;;;;5011212;28;19909;-71
2023/04/25 09:19:23;;;;;;;;;;;8.60;99.90;;;;;;4997294;28;19917;-72
2023/04/25 09:21:49;;;;;;;;;;;8.60;99.90;;;;;;5012411;28;19924;-68
2023/04/25 09:24:14;;;;;;;;;;;8.70;99.90;;;;;;5016385;28;21705;-69
2023/04/25 09:26:40;;;;;;;;;;;8.80;99.90;;;;;;5015251;28;19909;-72
2023/04/25 09:29:07;;;;;;;;;;;8.80;99.90;;;;;;5022464;28;19923;-70
2023/04/25 09:31:33;;;;;;;;;;;8.80;99.90;;;;;;5018762;28;19924;-70
2023/04/25 09:34:02;;;;;;;;;;;8.90;99.90;;;;;;5018610;28;20008;-70
2023/04/25 09:36:28;;;;;;;;;;;8.90;99.90;;;;;;5002320;28;20426;-70
2023/04/25 09:38:53;;;;;;;;;;;9.00;99.90;;;;;;5018224;28;19952;-73
2023/04/25 09:41:25;;;;;;;;;;;9.00;99.90;;;;;;5020152;28;19952;-69
2023/04/25 09:43:51;;;;;;;;;;;8.80;99.90;;;;;;5013497;28;19992;-75
2023/04/25 09:46:25;;;;;;;;;;;8.70;99.90;;;;;;5015148;28;20012;-70
2023/04/25 09:48:51;;;;;;;;;;;8.60;99.90;;;;;;5015491;28;20027;-70
2023/04/25 09:51:16;;;;;;;;;;;8.60;99.90;;;;;;5011799;28;20004;-70
2023/04/25 09:53:43;;;;;;;;;;;8.70;99.90;;;;;;5016359;28;19921;-70
2023/04/25 09:56:10;;;;;;;;;;;8.80;99.90;;;;;;5011024;28;19956;-71
2023/04/25 09:58:36;;;;;;;;;;;8.90;99.90;;;;;;5013121;28;20296;-71
2023/04/25 10:01:03;;;;;;;;;;;9.10;99.90;;;;;;5015673;28;19913;-70
2023/04/25 10:03:32;;;;;;;;;;;9.20;99.90;;;;;;5013174;28;19944;-70
2023/04/25 10:06:02;;;;;;;;;;;9.30;99.90;;;;;;5012452;28;19985;-71
2023/04/25 10:08:31;;;;;;;;;;;9.20;99.90;;;;;;5012216;28;19921;-69
2023/04/25 10:10:59;;;;;;;;;;;9.30;99.90;;;;;;5014988;28;19917;-70
2023/04/25 10:13:25;;;;;;;;;;;9.30;99.90;;;;;;5012053;28;20388;-71
2023/04/25 10:15:52;;;;;;;;;;;9.40;99.90;;;;;;5013662;28;20016;-73
2023/04/25 10:18:19;;;;;;;;;;;9.50;99.90;;;;;;5015360;28;19992;-71
2023/04/25 10:20:45;;;;;;;;;;;9.50;99.90;;;;;;5012851;28;20264;-71
2023/04/25 10:23:15;;;;;;;;;;;9.50;99.90;;;;;;5014079;28;20362;-70
2023/04/25 10:25:42;;;;;;;;;;;9.30;99.00;;;;;;5015042;28;20391;-70
2023/04/25 10:28:07;;;;;;;;;;;9.40;99.90;;;;;;5014638;28;19913;-70
2023/04/25 10:30:33;;;;;;;;;;;9.40;99.60;;;;;;5014996;28;19909;-70
2023/04/25 10:32:59;;;;;;;;;;;9.20;99.90;;;;;;5014321;28;19916;-73
2023/04/25 10:35:26;;;;;;;;;;;9.20;99.90;;;;;;5015510;28;20438;-70
2023/04/25 10:37:58;;;;;;;;;;;9.40;99.90;;;;;;5011720;28;19913;-70
2023/04/25 10:40:23;;;;;;;;;;;9.60;99.90;;;;;;5035726;28;19921;-70
2023/04/25 10:42:51;;;;;;;;;;;9.50;99.90;;;;;;5013942;28;20396;-70
2023/04/25 10:45:17;;;;;;;;;;;9.60;99.90;;;;;;5012978;28;19924;-70
2023/04/25 10:47:45;;;;;;;;;;;9.70;99.90;;;;;;5014093;28;19917;-71
2023/04/25 10:50:11;;;;;;;;;;;9.90;99.90;;;;;;5012296;28;19913;-70
2023/04/25 10:52:40;;;;;;;;;;;10.10;99.90;;;;;;5012395;28;19915;-70
2023/04/25 10:55:06;;;;;;;;;;;10.20;99.90;;;;;;5009520;28;20437;-70
2023/04/25 10:57:31;;;;;;;;;;;10.20;98.90;;;;;;5011797;28;20072;-69
2023/04/25 11:00:10;;;;;;;;;;;10.10;99.30;;;;;;5015490;28;19909;-70
2023/04/25 11:02:51;;;;;;;;;;;10.00;99.90;;;;;;5012951;28;20016;-69
2023/04/25 11:05:22;;;;;;;;;;;10.20;99.90;;;;;;5012523;28;19920;-72
2023/04/25 11:07:57;;;;;;;;;;;10.30;99.90;;;;;;5013313;28;20020;-69
2023/04/25 11:10:26;;;;;;;;;;;10.40;99.90;;;;;;4994316;28;20428;-70
2023/04/25 11:12:52;;;;;;;;;;;11.20;99.10;;;;;;5046801;28;19917;-70
2023/04/25 11:15:21;;;;;;;;;;;12.30;96.60;;;;;;5016415;28;19963;-72
2023/04/25 11:17:51;;;;;;;;;;;13.40;92.80;;;;;;5013154;28;20270;-71
2023/04/25 11:20:16;;;;;;;;;;;14.30;91.00;;;;;;5012518;28;19913;-71
2023/04/25 11:22:43;;;;;;;;;;;14.70;82.80;;;;;;5011714;28;19909;-69
2023/04/25 11:25:10;;;;;;;;;;;14.20;79.10;;;;;;5013125;28;19909;-71
2023/04/25 11:27:52;;;;;;;;;;;14.00;82.30;;;;;;5011407;28;20420;-70
2023/04/25 11:30:18;;;;;;;;;;;14.70;78.30;;;;;;5015401;28;19909;-71
2023/04/25 11:32:44;;;;;;;;;;;14.90;72.00;;;;;;5015715;28;19916;-70
2023/04/25 11:35:10;;;;;;;;;;;14.40;72.90;;;;;;5033430;28;19919;-70
2023/04/25 11:37:36;;;;;;;;;;;13.00;80.20;;;;;;4996896;28;19933;-70
2023/04/25 11:40:06;;;;;;;;;;;11.90;85.70;;;;;;5015658;28;20008;-69
2023/04/25 11:42:32;;;;;;;;;;;11.30;88.50;;;;;;5013998;28;19913;-69
2023/04/25 11:44:58;;;;;;;;;;;10.60;89.10;;;;;;5014897;28;19912;-70
2023/04/25 11:47:28;;;;;;;;;;;10.40;91.40;;;;;;5018882;28;19975;-70
2023/04/25 11:49:53;;;;;;;;;;;10.60;93.00;;;;;;5015226;28;19919;-70
2023/04/25 11:52:19;;;;;;;;;;;11.40;93.90;;;;;;5016018;28;20289;-70
2023/04/25 11:54:45;;;;;;;;;;;12.00;90.50;;;;;;5017589;28;19917;-71
2023/04/25 11:57:11;;;;;;;;;;;12.10;90.30;;;;;;5017204;28;19905;-71
2023/04/25 11:59:37;;;;;;;;;;;12.50;87.40;;;;;;5048747;28;19924;-70
2023/04/25 12:02:02;;;;;;;;;;;12.70;87.70;;;;;;5018325;28;20269;-71
2023/04/25 12:04:30;;;;;;;;;;;12.90;86.10;;;;;;5015183;28;19993;-70
2023/04/25 12:06:55;;;;;;;;;;;13.20;86.30;;;;;;5016700;28;19909;-70
2023/04/25 12:09:30;;;;;;;;;;;13.70;84.20;;;;;;5016891;28;20012;-72
2023/04/25 12:11:57;;;;;;;;;;;13.40;82.50;;;;;;5017103;28;20099;-69
2023/04/25 12:14:24;;;;;;;;;;;13.30;81.50;;;;;;5015171;28;19920;-71
2023/04/25 12:16:51;;;;;;;;;;;12.90;81.30;;;;;;4998231;28;20332;-72
2023/04/25 12:19:17;;;;;;;;;;;12.70;78.50;;;;;;5018160;28;19913;-71
2023/04/25 12:21:43;;;;;;;;;;;12.60;71.50;;;;;;5014692;28;19910;-75
2023/04/25 12:24:09;;;;;;;;;;;12.10;74.20;;;;;;5018108;28;19959;-74
2023/04/25 12:26:59;;;;;;;;;;;11.70;73.60;;;;;;5014468;28;20270;-75
2023/04/25 12:29:25;;;;;;;;;;;11.30;74.10;;;;;;5016387;28;20020;-69
2023/04/25 12:31:54;;;;;;;;;;;11.30;77.90;;;;;;5013218;28;20296;-70
2023/04/25 12:34:20;;;;;;;;;;;11.80;77.10;;;;;;5016462;28;19936;-73
2023/04/25 12:36:46;;;;;;;;;;;11.90;74.10;;;;;;5016886;28;19919;-70
2023/04/25 12:39:16;;;;;;;;;;;11.60;75.90;;;;;;5014124;28;19917;-70
2023/04/25 12:41:41;;;;;;;;;;;11.50;78.70;;;;;;5017286;28;20293;-71
2023/04/25 12:44:07;;;;;;;;;;;12.00;76.50;;;;;;5015230;28;19920;-70
2023/04/25 12:46:33;;;;;;;;;;;12.20;73.60;;;;;;5014883;28;19917;-70
2023/04/25 12:48:58;;;;;;;;;;;12.20;73.90;;;;;;5015309;28;19920;-70
2023/04/25 12:51:25;;;;;;;;;;;12.00;72.00;;;;;;5016297;28;19913;-70
2023/04/25 12:53:51;;;;;;;;;;;11.50;79.10;;;;;;5016827;28;19963;-70
2023/04/25 12:56:17;;;;;;;;;;;11.50;80.70;;;;;;4996540;28;19909;-70
2023/04/25 12:58:44;;;;;;;;;;;11.10;82.00;;;;;;5015775;28;19909;-70
2023/04/25 13:01:09;;;;;;;;;;;11.40;84.40;;;;;;5016616;28;19919;-71
2023/04/25 13:03:35;;;;;;;;;;;12.50;81.00;;;;;;5012748;28;20366;-70
2023/04/25 13:06:01;;;;;;;;;;;13.30;74.50;;;;;;5013664;28;19917;-71
2023/04/25 13:08:26;;;;;;;;;;;13.80;73.40;;;;;;5013197;28;20412;-71
2023/04/25 13:10:52;;;;;;;;;;;13.20;75.00;;;;;;5016461;28;19959;-71
2023/04/25 13:13:18;;;;;;;;;;;12.60;73.70;;;;;;5016493;28;19952;-69
2023/04/25 13:15:43;;;;;;;;;;;12.60;74.90;;;;;;5013880;28;19995;-70
2023/04/25 13:18:09;;;;;;;;;;;12.30;75.60;;;;;;5015971;28;19909;-69
2023/04/25 13:20:35;;;;;;;;;;;11.20;82.70;;;;;;5015600;28;19963;-70
2023/04/25 13:23:01;;;;;;;;;;;10.60;92.20;;;;;;5013450;28;19917;-70
2023/04/25 13:25:26;;;;;;;;;;;9.90;98.40;;;;;;5000162;28;19944;-72
2023/04/25 13:27:52;;;;;;;;;;;9.30;99.90;;;;;;5016308;28;19928;-72
2023/04/25 13:30:18;;;;;;;;;;;9.10;99.90;;;;;;5014293;28;19920;-69
2023/04/25 13:32:43;;;;;;;;;;;9.10;99.90;;;;;;4998086;28;19964;-69
2023/04/25 13:35:10;;;;;;;;;;;9.80;99.90;;;;;;5013171;28;19917;-70
2023/04/25 13:37:36;;;;;;;;;;;11.10;99.90;;;;;;5014309;28;19912;-70
2023/04/25 13:40:08;;;;;;;;;;;12.70;99.90;;;;;;5014831;28;20346;-70
2023/04/25 13:42:34;;;;;;;;;;;14.60;96.00;;;;;;5016770;28;19909;-70
2023/04/25 13:45:00;;;;;;;;;;;15.70;88.90;;;;;;5014422;28;20395;-70
2023/04/25 13:47:26;;;;;;;;;;;16.40;82.70;;;;;;5012179;28;19975;-71
2023/04/25 13:49:51;;;;;;;;;;;14.90;82.30;;;;;;5048082;28;20357;-70
2023/04/25 13:52:17;;;;;;;;;;;13.10;86.20;;;;;;5012571;28;19920;-70
2023/04/25 13:54:43;;;;;;;;;;;11.20;92.80;;;;;;5012484;28;19913;-70
2023/04/25 13:57:08;;;;;;;;;;;10.10;99.90;;;;;;5017382;28;19909;-69
2023/04/25 13:59:34;;;;;;;;;;;9.50;99.90;;;;;;4995161;28;19909;-70
2023/04/25 14:02:00;;;;;;;;;;;9.10;99.90;;;;;;5013938;28;19944;-71
2023/04/25 14:04:26;;;;;;;;;;;8.90;99.90;;;;;;5013016;28;19909;-69
2023/04/25 14:06:51;;;;;;;;;;;8.90;99.90;;;;;;5014616;28;19922;-70
2023/04/25 14:09:19;;;;;;;;;;;8.80;99.90;;;;;;5014935;28;19975;-70
2023/04/25 14:11:45;;;;;;;;;;;8.80;99.90;;;;;;5029219;28;20789;-69
2023/04/25 14:14:11;;;;;;;;;;;8.80;99.90;;;;;;5015230;28;20363;-69
2023/04/25 14:16:37;;;;;;;;;;;9.20;99.90;;;;;;5010037;28;20487;-70
2023/04/25 14:19:03;;;;;;;;;;;9.50;99.90;;;;;;5009025;28;20238;-70
2023/04/25 14:21:29;;;;;;;;;;;9.70;99.90;;;;;;5011705;28;19997;-69
2023/04/25 14:23:55;;;;;;;;;;;9.90;99.90;;;;;;5008495;28;20344;-71
2023/04/25 14:26:20;;;;;;;;;;;9.90;99.90;;;;;;5000626;28;19940;-74